createdAt,value
2019-03-19T00:00:53.386Z,-73
2019-03-19T00:01:53.605Z,-74
2019-03-19T00:02:54.356Z,-76
2019-03-19T00:03:53.438Z,-74
2019-03-19T00:04:53.428Z,-73
2019-03-19T00:05:53.461Z,-72
2019-03-19T00:06:53.418Z,-71
2019-03-19T00:07:53.475Z,-73
2019-03-19T00:08:53.407Z,-71
2019-03-19T00:09:53.410Z,-75
2019-03-19T00:10:53.428Z,-73
2019-03-19T00:11:53.429Z,-73
2019-03-19T00:12:53.433Z,-73
2019-03-19T00:13:53.420Z,-74
2019-03-19T00:14:53.402Z,-72
2019-03-19T00:15:53.416Z,-73
2019-03-19T00:16:54.279Z,-76
2019-03-19T00:17:53.485Z,-72
2019-03-19T00:18:53.409Z,-72
2019-03-19T00:19:53.415Z,-71
2019-03-19T00:20:53.434Z,-72
2019-03-19T00:21:53.365Z,-71
2019-03-19T00:22:53.430Z,-75
2019-03-19T00:23:53.667Z,-73
2019-03-19T00:24:53.758Z,-73
2019-03-19T00:25:53.534Z,-72
2019-03-19T00:26:53.410Z,-72
2019-03-19T00:27:53.414Z,-72
2019-03-19T00:28:53.374Z,-72
2019-03-19T00:29:53.542Z,-72
2019-03-19T00:30:53.383Z,-72
2019-03-19T00:31:53.400Z,-73
2019-03-19T00:32:53.415Z,-72
2019-03-19T00:33:53.571Z,-73
2019-03-19T00:34:53.346Z,-75
2019-03-19T00:35:53.350Z,-76
2019-03-19T00:36:53.393Z,-71
2019-03-19T00:37:53.381Z,-71
2019-03-19T00:38:53.350Z,-71
2019-03-19T00:39:53.358Z,-71
2019-03-19T00:40:53.367Z,-74
2019-03-19T00:41:53.569Z,-75
2019-03-19T00:42:53.403Z,-69
2019-03-19T00:43:53.349Z,-71
2019-03-19T00:44:53.381Z,-73
2019-03-19T00:45:53.586Z,-72
2019-03-19T00:46:53.600Z,-74
2019-03-19T00:47:53.385Z,-72
2019-03-19T00:48:53.340Z,-71
2019-03-19T00:49:53.345Z,-74
2019-03-19T00:50:53.348Z,-74
2019-03-19T00:51:54.238Z,-76
2019-03-19T00:52:53.361Z,-74
2019-03-19T00:53:53.323Z,-74
2019-03-19T00:54:53.354Z,-75
2019-03-19T00:55:53.339Z,-75
2019-03-19T00:56:53.347Z,-72
2019-03-19T00:57:53.332Z,-72
2019-03-19T00:58:53.316Z,-73
2019-03-19T00:59:53.335Z,-71
2019-03-19T01:00:53.317Z,-73
2019-03-19T01:01:53.326Z,-73
2019-03-19T01:02:53.335Z,-72
2019-03-19T01:03:53.389Z,-72
2019-03-19T01:04:53.373Z,-74
2019-03-19T01:05:53.327Z,-74
2019-03-19T01:06:53.359Z,-75
2019-03-19T01:07:53.648Z,-74
2019-03-19T01:08:53.301Z,-71
2019-03-19T01:09:53.316Z,-72
2019-03-19T01:10:53.333Z,-72
2019-03-19T01:11:53.311Z,-73
2019-03-19T01:12:53.306Z,-73
2019-03-19T01:13:53.296Z,-74
2019-03-19T01:14:53.319Z,-72
2019-03-19T01:15:53.317Z,-73
2019-03-19T01:16:53.307Z,-71
2019-03-19T01:17:53.323Z,-73
2019-03-19T01:18:53.329Z,-71
2019-03-19T01:19:53.315Z,-69
2019-03-19T01:20:53.301Z,-73
2019-03-19T01:21:53.298Z,-72
2019-03-19T01:22:53.297Z,-71
2019-03-19T01:23:53.365Z,-71
2019-03-19T01:24:53.373Z,-71
2019-03-19T01:25:56.433Z,-71
2019-03-19T01:26:53.297Z,-71
2019-03-19T01:27:53.326Z,-73
2019-03-19T01:28:53.281Z,-72
2019-03-19T01:29:53.319Z,-72
2019-03-19T01:30:53.340Z,-72
2019-03-19T01:31:53.281Z,-72
2019-03-19T01:32:53.345Z,-73
2019-03-19T01:33:53.415Z,-74
2019-03-19T01:34:53.305Z,-75
2019-03-19T01:35:53.258Z,-72
2019-03-19T01:36:53.255Z,-71
2019-03-19T01:37:53.322Z,-73
2019-03-19T01:38:53.286Z,-71
2019-03-19T01:39:53.266Z,-73
2019-03-19T01:40:53.278Z,-72
2019-03-19T01:41:53.261Z,-72
2019-03-19T01:42:53.264Z,-73
2019-03-19T01:43:53.335Z,-75
2019-03-19T01:44:53.274Z,-73
2019-03-19T01:45:53.261Z,-71
2019-03-19T01:46:53.291Z,-71
2019-03-19T01:47:53.235Z,-72
2019-03-19T01:48:53.280Z,-73
2019-03-19T01:49:53.253Z,-72
2019-03-19T01:50:53.521Z,-75
2019-03-19T01:51:53.240Z,-73
2019-03-19T01:52:53.230Z,-73
2019-03-19T01:53:53.247Z,-71
2019-03-19T01:54:53.248Z,-73
2019-03-19T01:55:53.253Z,-73
2019-03-19T01:56:53.240Z,-74
2019-03-19T01:57:53.250Z,-73
2019-03-19T01:58:53.254Z,-74
2019-03-19T01:59:53.254Z,-73
2019-03-19T02:00:53.294Z,-72
2019-03-19T02:01:53.242Z,-71
2019-03-19T02:02:53.244Z,-71
2019-03-19T02:03:53.242Z,-73
2019-03-19T02:04:53.265Z,-72
2019-03-19T02:05:53.333Z,-73
2019-03-19T02:06:53.231Z,-71
2019-03-19T02:07:53.278Z,-72
2019-03-19T02:08:53.288Z,-72
2019-03-19T02:09:53.207Z,-72
2019-03-19T02:10:53.229Z,-70
2019-03-19T02:11:53.231Z,-73
2019-03-19T02:12:53.569Z,-75
2019-03-19T02:13:53.230Z,-72
2019-03-19T02:14:53.216Z,-73
2019-03-19T02:15:53.230Z,-75
2019-03-19T02:16:53.209Z,-71
2019-03-19T02:17:53.232Z,-74
2019-03-19T02:18:53.208Z,-72
2019-03-19T02:19:53.221Z,-72
2019-03-19T02:20:53.229Z,-72
2019-03-19T02:21:53.218Z,-73
2019-03-19T02:22:53.400Z,-72
2019-03-19T02:23:53.222Z,-73
2019-03-19T02:24:53.229Z,-73
2019-03-19T02:25:53.214Z,-72
2019-03-19T02:26:53.274Z,-72
2019-03-19T02:27:53.344Z,-73
2019-03-19T02:28:53.220Z,-73
2019-03-19T02:29:53.211Z,-72
2019-03-19T02:30:53.381Z,-71
2019-03-19T02:31:53.264Z,-73
2019-03-19T02:32:53.233Z,-75
2019-03-19T02:33:53.375Z,-73
2019-03-19T02:34:53.411Z,-76
2019-03-19T02:35:53.265Z,-75
2019-03-19T02:36:53.223Z,-75
2019-03-19T02:37:53.393Z,-72
2019-03-19T02:38:53.227Z,-75
2019-03-19T02:39:53.182Z,-71
2019-03-19T02:40:53.270Z,-73
2019-03-19T02:41:53.245Z,-71
2019-03-19T02:42:53.249Z,-72
2019-03-19T02:43:53.165Z,-71
2019-03-19T02:44:53.187Z,-72
2019-03-19T02:45:53.201Z,-73
2019-03-19T02:46:53.169Z,-71
2019-03-19T02:47:53.616Z,-73
2019-03-19T02:48:53.256Z,-73
2019-03-19T02:49:53.196Z,-70
2019-03-19T02:50:53.192Z,-72
2019-03-19T02:51:53.185Z,-71
2019-03-19T02:52:53.234Z,-73
2019-03-19T02:53:53.173Z,-72
2019-03-19T02:54:53.157Z,-73
2019-03-19T02:55:55.021Z,-75
2019-03-19T02:56:53.163Z,-73
2019-03-19T02:57:53.189Z,-73
2019-03-19T02:58:53.193Z,-73
2019-03-19T02:59:53.137Z,-72
2019-03-19T03:00:53.164Z,-72
2019-03-19T03:01:53.228Z,-71
2019-03-19T03:02:53.223Z,-71
2019-03-19T03:03:53.156Z,-72
2019-03-19T03:04:53.206Z,-73
2019-03-19T03:05:53.279Z,-72
2019-03-19T03:06:53.160Z,-74
2019-03-19T03:07:53.206Z,-74
2019-03-19T03:08:53.170Z,-71
2019-03-19T03:09:53.194Z,-72
2019-03-19T03:10:53.204Z,-72
2019-03-19T03:11:53.157Z,-72
2019-03-19T03:12:53.170Z,-72
2019-03-19T03:13:53.137Z,-71
2019-03-19T03:14:53.206Z,-73
2019-03-19T03:15:53.101Z,-75
2019-03-19T03:16:53.151Z,-71
2019-03-19T03:17:53.151Z,-72
2019-03-19T03:18:53.198Z,-72
2019-03-19T03:19:53.169Z,-71
2019-03-19T03:20:53.171Z,-72
2019-03-19T03:21:53.146Z,-73
2019-03-19T03:22:53.133Z,-74
2019-03-19T03:23:53.139Z,-72
2019-03-19T03:24:53.201Z,-73
2019-03-19T03:25:53.174Z,-73
2019-03-19T03:26:53.169Z,-72
2019-03-19T03:27:53.205Z,-73
2019-03-19T03:28:53.148Z,-72
2019-03-19T03:29:53.110Z,-72
2019-03-19T03:30:53.220Z,-72
2019-03-19T03:31:53.174Z,-70
2019-03-19T03:32:53.901Z,-73
2019-03-19T03:33:53.134Z,-72
2019-03-19T03:34:53.214Z,-72
2019-03-19T03:35:53.158Z,-71
2019-03-19T03:36:53.192Z,-72
2019-03-19T03:37:53.162Z,-73
2019-03-19T03:38:53.113Z,-73
2019-03-19T03:39:53.081Z,-72
2019-03-19T03:40:53.106Z,-71
2019-03-19T03:41:53.296Z,-71
2019-03-19T03:42:53.116Z,-72
2019-03-19T03:43:53.130Z,-71
2019-03-19T03:44:53.113Z,-74
2019-03-19T03:45:53.228Z,-72
2019-03-19T03:46:53.082Z,-72
2019-03-19T03:47:53.117Z,-73
2019-03-19T03:48:53.179Z,-73
2019-03-19T03:49:53.174Z,-72
2019-03-19T03:50:53.116Z,-72
2019-03-19T03:51:53.068Z,-74
2019-03-19T03:52:53.169Z,-72
2019-03-19T03:53:53.105Z,-71
2019-03-19T03:54:53.118Z,-71
2019-03-19T03:55:53.163Z,-71
2019-03-19T03:57:03.367Z,-71
2019-03-19T03:57:53.113Z,-70
2019-03-19T03:59:01.781Z,-72
2019-03-19T03:59:53.126Z,-73
2019-03-19T04:00:53.466Z,-74
2019-03-19T04:01:53.113Z,-74
2019-03-19T04:02:53.138Z,-73
2019-03-19T04:03:53.044Z,-72
2019-03-19T04:04:53.111Z,-71
2019-03-19T04:05:53.072Z,-72
2019-03-19T04:06:53.060Z,-70
2019-03-19T04:07:53.027Z,-72
2019-03-19T04:08:53.078Z,-74
2019-03-19T04:09:53.233Z,-72
2019-03-19T04:10:53.155Z,-72
2019-03-19T04:11:53.082Z,-72
2019-03-19T04:12:53.160Z,-74
2019-03-19T04:13:53.063Z,-71
2019-03-19T04:14:53.100Z,-72
2019-03-19T04:15:53.098Z,-71
2019-03-19T04:16:53.086Z,-75
2019-03-19T04:17:53.049Z,-72
2019-03-19T04:18:53.032Z,-71
2019-03-19T04:19:53.062Z,-71
2019-03-19T04:20:53.038Z,-70
2019-03-19T04:21:53.075Z,-71
2019-03-19T04:22:53.315Z,-74
2019-03-19T04:23:53.073Z,-72
2019-03-19T04:24:53.071Z,-73
2019-03-19T04:25:53.068Z,-73
2019-03-19T04:26:53.059Z,-73
2019-03-19T04:27:53.063Z,-70
2019-03-19T04:28:53.036Z,-73
2019-03-19T04:29:53.063Z,-73
2019-03-19T04:30:53.052Z,-73
2019-03-19T04:31:53.113Z,-74
2019-03-19T04:32:53.045Z,-75
2019-03-19T04:33:53.085Z,-74
2019-03-19T04:34:53.045Z,-72
2019-03-19T04:35:53.006Z,-71
2019-03-19T04:36:53.007Z,-71
2019-03-19T04:37:53.015Z,-73
2019-03-19T04:38:53.171Z,-72
2019-03-19T04:39:53.001Z,-75
2019-03-19T04:40:53.111Z,-75
2019-03-19T04:41:53.020Z,-75
2019-03-19T04:42:53.158Z,-73
2019-03-19T04:43:53.324Z,-73
2019-03-19T04:44:53.215Z,-74
2019-03-19T04:45:53.015Z,-72
2019-03-19T04:46:53.233Z,-71
2019-03-19T04:47:53.019Z,-72
2019-03-19T04:48:53.012Z,-72
2019-03-19T04:49:53.012Z,-72
2019-03-19T04:50:53.333Z,-74
2019-03-19T04:51:53.004Z,-73
2019-03-19T04:52:52.957Z,-74
2019-03-19T04:53:53.006Z,-72
2019-03-19T04:54:52.972Z,-69
2019-03-19T04:55:52.969Z,-75
2019-03-19T04:56:53.030Z,-75
2019-03-19T04:57:52.971Z,-71
2019-03-19T04:58:52.988Z,-72
2019-03-19T04:59:53.018Z,-71
2019-03-19T05:00:52.968Z,-71
2019-03-19T05:01:52.945Z,-71
2019-03-19T05:02:52.931Z,-73
2019-03-19T05:03:52.951Z,-73
2019-03-19T05:04:52.966Z,-74
2019-03-19T05:05:53.268Z,-75
2019-03-19T05:06:53.022Z,-72
2019-03-19T05:07:52.993Z,-71
2019-03-19T05:08:52.986Z,-73
2019-03-19T05:09:52.995Z,-70
2019-03-19T05:10:52.956Z,-72
2019-03-19T05:11:52.953Z,-74
2019-03-19T05:12:52.927Z,-75
2019-03-19T05:13:52.929Z,-75
2019-03-19T05:14:52.963Z,-71
2019-03-19T05:15:52.941Z,-74
2019-03-19T05:16:52.938Z,-73
2019-03-19T05:17:52.926Z,-74
2019-03-19T05:18:52.928Z,-73
2019-03-19T05:19:52.928Z,-73
2019-03-19T05:20:52.934Z,-72
2019-03-19T05:21:52.935Z,-70
2019-03-19T05:22:52.948Z,-72
2019-03-19T05:23:52.923Z,-72
2019-03-19T05:24:52.968Z,-70
2019-03-19T05:25:53.812Z,-74
2019-03-19T05:26:52.893Z,-73
2019-03-19T05:27:53.086Z,-73
2019-03-19T05:28:52.948Z,-71
2019-03-19T05:29:52.960Z,-72
2019-03-19T05:30:52.923Z,-72
2019-03-19T05:31:52.916Z,-73
2019-03-19T05:32:52.948Z,-73
2019-03-19T05:33:52.959Z,-72
2019-03-19T05:34:52.931Z,-74
2019-03-19T05:35:52.908Z,-74
2019-03-19T05:36:52.956Z,-71
2019-03-19T05:37:52.925Z,-74
2019-03-19T05:38:53.773Z,-75
2019-03-19T05:39:52.931Z,-72
2019-03-19T05:40:52.895Z,-72
2019-03-19T05:41:52.996Z,-73
2019-03-19T05:42:52.898Z,-72
2019-03-19T05:43:52.921Z,-72
2019-03-19T05:44:52.995Z,-72
2019-03-19T05:45:52.876Z,-74
2019-03-19T05:46:52.888Z,-72
2019-03-19T05:48:52.893Z,-72
2019-03-19T05:49:52.923Z,-73
2019-03-19T05:50:52.913Z,-72
2019-03-19T05:51:52.915Z,-72
2019-03-19T05:52:52.902Z,-71
2019-03-19T05:53:52.915Z,-70
2019-03-19T05:54:52.897Z,-71
2019-03-19T05:55:53.040Z,-72
2019-03-19T05:56:52.878Z,-72
2019-03-19T05:57:52.889Z,-73
2019-03-19T05:58:52.934Z,-75
2019-03-19T05:59:52.940Z,-74
2019-03-19T06:00:52.991Z,-72
2019-03-19T06:01:52.958Z,-73
2019-03-19T06:02:53.159Z,-73
2019-03-19T06:03:52.884Z,-73
2019-03-19T06:04:52.873Z,-71
2019-03-19T06:05:52.860Z,-72
2019-03-19T06:06:52.877Z,-72
2019-03-19T06:07:52.893Z,-73
2019-03-19T06:08:52.908Z,-70
2019-03-19T06:09:52.877Z,-73
2019-03-19T06:10:54.525Z,-74
2019-03-19T06:11:53.203Z,-73
2019-03-19T06:12:52.950Z,-72
2019-03-19T06:13:52.878Z,-72
2019-03-19T06:14:52.848Z,-74
2019-03-19T06:15:52.869Z,-73
2019-03-19T06:16:52.853Z,-74
2019-03-19T06:17:52.928Z,-73
2019-03-19T06:18:52.911Z,-73
2019-03-19T06:19:52.860Z,-74
2019-03-19T06:20:52.913Z,-75
2019-03-19T06:21:52.837Z,-73
2019-03-19T06:22:52.871Z,-70
2019-03-19T06:23:52.860Z,-72
2019-03-19T06:24:52.826Z,-73
2019-03-19T06:25:52.954Z,-70
2019-03-19T06:26:52.925Z,-74
2019-03-19T06:28:01.215Z,-70
2019-03-19T06:28:52.889Z,-73
2019-03-19T06:29:52.830Z,-75
2019-03-19T06:30:52.837Z,-71
2019-03-19T06:31:52.816Z,-73
2019-03-19T06:32:53.230Z,-73
2019-03-19T06:33:52.808Z,-75
2019-03-19T06:34:52.821Z,-75
2019-03-19T06:35:52.811Z,-73
2019-03-19T06:36:52.851Z,-73
2019-03-19T06:37:52.880Z,-73
2019-03-19T06:38:52.805Z,-73
2019-03-19T06:39:52.815Z,-74
2019-03-19T06:40:52.837Z,-73
2019-03-19T06:41:52.801Z,-72
2019-03-19T06:42:52.834Z,-73
2019-03-19T06:43:52.800Z,-71
2019-03-19T06:44:52.806Z,-74
2019-03-19T06:45:52.818Z,-72
2019-03-19T06:46:52.803Z,-74
2019-03-19T06:47:52.807Z,-73
2019-03-19T06:48:52.801Z,-73
2019-03-19T06:49:52.810Z,-74
2019-03-19T06:50:52.827Z,-73
2019-03-19T06:51:52.874Z,-74
2019-03-19T06:52:52.831Z,-72
2019-03-19T06:53:52.806Z,-75
2019-03-19T06:54:53.455Z,-74
2019-03-19T06:55:52.813Z,-71
2019-03-19T06:56:52.798Z,-73
2019-03-19T06:57:52.785Z,-74
2019-03-19T06:58:52.777Z,-72
2019-03-19T06:59:52.778Z,-73
2019-03-19T07:00:52.784Z,-73
2019-03-19T07:01:52.811Z,-72
2019-03-19T07:02:52.830Z,-73
2019-03-19T07:03:52.810Z,-74
2019-03-19T07:04:52.791Z,-74
2019-03-19T07:05:52.760Z,-75
2019-03-19T07:06:52.812Z,-74
2019-03-19T07:07:52.871Z,-75
2019-03-19T07:08:52.813Z,-72
2019-03-19T07:09:52.765Z,-74
2019-03-19T07:10:52.774Z,-71
2019-03-19T07:11:52.778Z,-72
2019-03-19T07:12:52.772Z,-72
2019-03-19T07:13:52.793Z,-72
2019-03-19T07:14:52.807Z,-73
2019-03-19T07:15:52.825Z,-74
2019-03-19T07:16:52.768Z,-73
2019-03-19T07:17:52.779Z,-74
2019-03-19T07:18:52.758Z,-75
2019-03-19T07:19:52.740Z,-74
2019-03-19T07:20:52.734Z,-75
2019-03-19T07:21:52.749Z,-73
2019-03-19T07:22:52.741Z,-73
2019-03-19T07:23:52.729Z,-72
2019-03-19T07:24:52.752Z,-74
2019-03-19T07:25:52.759Z,-73
2019-03-19T07:26:52.745Z,-73
2019-03-19T07:27:52.738Z,-75
2019-03-19T07:28:52.779Z,-75
2019-03-19T07:29:52.737Z,-74
2019-03-19T07:30:52.736Z,-73
2019-03-19T07:31:52.742Z,-74
2019-03-19T07:32:52.736Z,-75
2019-03-19T07:33:52.866Z,-75
2019-03-19T07:34:52.709Z,-74
2019-03-19T07:35:52.730Z,-74
2019-03-19T07:36:52.714Z,-74
2019-03-19T07:37:52.994Z,-74
2019-03-19T07:38:52.542Z,-73
2019-03-19T07:39:52.732Z,-75
2019-03-19T07:40:52.747Z,-75
2019-03-19T07:41:52.831Z,-74
2019-03-19T07:42:52.743Z,-73
2019-03-19T07:43:52.721Z,-74
2019-03-19T07:44:52.742Z,-73
2019-03-19T07:45:52.802Z,-74
2019-03-19T07:46:52.734Z,-73
2019-03-19T07:47:52.743Z,-74
2019-03-19T07:48:52.951Z,-74
2019-03-19T07:49:52.736Z,-74
2019-03-19T07:50:52.714Z,-74
2019-03-19T07:51:53.910Z,-74
2019-03-19T07:52:52.724Z,-75
2019-03-19T07:53:52.701Z,-74
2019-03-19T07:54:52.701Z,-74
2019-03-19T07:55:53.946Z,-74
2019-03-19T07:56:52.709Z,-72
2019-03-19T07:57:52.695Z,-73
2019-03-19T07:58:52.727Z,-71
2019-03-19T07:59:52.778Z,-73
2019-03-19T08:00:52.717Z,-72
2019-03-19T08:01:52.684Z,-72
2019-03-19T08:02:52.776Z,-74
2019-03-19T08:03:52.736Z,-72
2019-03-19T08:04:52.671Z,-72
2019-03-19T08:05:52.666Z,-74
2019-03-19T08:06:52.715Z,-74
2019-03-19T08:07:52.720Z,-74
2019-03-19T08:08:52.814Z,-72
2019-03-19T08:09:52.721Z,-74
2019-03-19T08:10:52.669Z,-74
2019-03-19T08:11:52.725Z,-74
2019-03-19T08:12:52.699Z,-74
2019-03-19T08:13:52.676Z,-73
2019-03-19T08:14:52.790Z,-73
2019-03-19T08:15:52.710Z,-73
2019-03-19T08:16:53.675Z,-74
2019-03-19T08:17:52.667Z,-73
2019-03-19T08:18:52.681Z,-74
2019-03-19T08:19:52.676Z,-75
2019-03-19T08:20:52.877Z,-73
2019-03-19T08:21:52.645Z,-74
2019-03-19T08:22:52.644Z,-74
2019-03-19T08:23:52.666Z,-74
2019-03-19T08:24:52.649Z,-75
2019-03-19T08:25:52.703Z,-75
2019-03-19T08:26:52.653Z,-75
2019-03-19T08:27:52.652Z,-74
2019-03-19T08:28:55.984Z,-73
2019-03-19T08:29:52.964Z,-72
2019-03-19T08:30:52.693Z,-75
2019-03-19T08:31:52.919Z,-74
2019-03-19T08:32:52.654Z,-74
2019-03-19T08:33:52.659Z,-72
2019-03-19T08:34:52.653Z,-72
2019-03-19T08:35:52.629Z,-75
2019-03-19T08:36:52.674Z,-74
2019-03-19T08:37:52.671Z,-74
2019-03-19T08:38:52.617Z,-75
2019-03-19T08:39:52.619Z,-76
2019-03-19T08:40:52.728Z,-76
2019-03-19T08:41:52.633Z,-76
2019-03-19T08:42:53.647Z,-73
2019-03-19T08:43:53.032Z,-76
2019-03-19T08:44:52.627Z,-76
2019-03-19T08:45:52.634Z,-77
2019-03-19T08:46:52.598Z,-76
2019-03-19T08:47:52.628Z,-77
2019-03-19T08:48:52.607Z,-76
2019-03-19T08:49:52.908Z,-74
2019-03-19T08:50:52.586Z,-75
2019-03-19T08:51:52.594Z,-75
2019-03-19T08:52:56.111Z,-75
2019-03-19T08:53:52.588Z,-77
2019-03-19T08:54:52.629Z,-77
2019-03-19T08:55:52.646Z,-77
2019-03-19T08:56:52.592Z,-76
2019-03-19T08:57:52.598Z,-78
2019-03-19T08:58:52.704Z,-77
2019-03-19T08:59:52.598Z,-77
2019-03-19T09:00:52.568Z,-76
2019-03-19T09:01:52.583Z,-76
2019-03-19T09:02:52.582Z,-75
2019-03-19T09:03:52.564Z,-76
2019-03-19T09:04:52.612Z,-76
2019-03-19T09:05:52.649Z,-74
2019-03-19T09:06:52.598Z,-76
2019-03-19T09:07:52.573Z,-76
2019-03-19T09:08:52.562Z,-76
2019-03-19T09:09:52.611Z,-76
2019-03-19T09:10:52.700Z,-75
2019-03-19T09:11:52.616Z,-76
2019-03-19T09:12:52.600Z,-76
2019-03-19T09:13:52.557Z,-77
2019-03-19T09:14:52.556Z,-76
2019-03-19T09:15:52.571Z,-76
2019-03-19T09:16:52.634Z,-76
2019-03-19T09:17:52.592Z,-76
2019-03-19T09:18:52.562Z,-76
2019-03-19T09:19:52.556Z,-76
2019-03-19T09:20:54.398Z,-77
2019-03-19T09:21:52.561Z,-77
2019-03-19T09:22:52.610Z,-74
2019-03-19T09:23:52.554Z,-77
2019-03-19T09:24:52.611Z,-77
2019-03-19T09:25:52.565Z,-76
2019-03-19T09:26:52.539Z,-77
2019-03-19T09:27:52.600Z,-76
2019-03-19T09:28:52.557Z,-75
2019-03-19T09:29:52.532Z,-75
2019-03-19T09:30:52.546Z,-75
2019-03-19T09:31:52.589Z,-76
2019-03-19T09:32:52.678Z,-76
2019-03-19T09:33:52.526Z,-76
2019-03-19T09:34:52.535Z,-77
2019-03-19T09:35:52.559Z,-78
2019-03-19T09:36:58.111Z,-77
2019-03-19T09:37:59.511Z,-76
2019-03-19T09:38:52.525Z,-77
2019-03-19T09:39:52.553Z,-76
2019-03-19T09:40:52.567Z,-76
2019-03-19T09:41:52.566Z,-77
2019-03-19T09:42:52.573Z,-77
2019-03-19T09:43:53.930Z,-77
2019-03-19T09:44:59.031Z,-76
2019-03-19T09:45:52.548Z,-76
2019-03-19T09:46:52.551Z,-75
2019-03-19T09:47:52.569Z,-76
2019-03-19T09:48:52.588Z,-78
2019-03-19T09:49:52.512Z,-77
2019-03-19T09:50:52.523Z,-77
2019-03-19T09:51:52.496Z,-77
2019-03-19T09:52:52.505Z,-77
2019-03-19T09:53:52.699Z,-76
2019-03-19T09:54:52.830Z,-74
2019-03-19T09:55:52.529Z,-75
2019-03-19T09:56:52.506Z,-76
2019-03-19T09:57:52.586Z,-76
2019-03-19T09:58:52.565Z,-75
2019-03-19T09:59:52.502Z,-77
2019-03-19T10:00:52.507Z,-77
2019-03-19T10:01:52.541Z,-77
2019-03-19T10:02:52.481Z,-76
2019-03-19T10:03:52.526Z,-76
2019-03-19T10:04:52.546Z,-76
2019-03-19T10:05:52.494Z,-77
2019-03-19T10:06:52.501Z,-75
2019-03-19T10:07:52.505Z,-77
2019-03-19T10:08:52.521Z,-77
2019-03-19T10:09:52.502Z,-75
2019-03-19T10:10:52.914Z,-76
2019-03-19T10:11:52.491Z,-77
2019-03-19T10:12:52.495Z,-77
2019-03-19T10:13:52.743Z,-77
2019-03-19T10:14:52.484Z,-78
2019-03-19T10:15:52.598Z,-75
2019-03-19T10:16:52.522Z,-77
2019-03-19T10:17:52.488Z,-77
2019-03-19T10:18:52.568Z,-77
2019-03-19T10:19:52.479Z,-77
2019-03-19T10:20:52.470Z,-75
2019-03-19T10:21:52.477Z,-75
2019-03-19T10:22:52.537Z,-77
2019-03-19T10:23:52.507Z,-77
2019-03-19T10:24:52.458Z,-78
2019-03-19T10:25:52.460Z,-78
2019-03-19T10:26:52.442Z,-77
2019-03-19T10:27:52.464Z,-78
2019-03-19T10:28:52.452Z,-77
2019-03-19T10:29:52.448Z,-77
2019-03-19T10:30:52.434Z,-76
2019-03-19T10:31:52.465Z,-78
2019-03-19T10:32:52.655Z,-77
2019-03-19T10:33:52.464Z,-77
2019-03-19T10:34:52.504Z,-77
2019-03-19T10:35:52.483Z,-76
2019-03-19T10:36:52.460Z,-76
2019-03-19T10:37:52.524Z,-76
2019-03-19T10:38:52.523Z,-78
2019-03-19T10:39:52.504Z,-78
2019-03-19T10:40:52.440Z,-78
2019-03-19T10:41:52.448Z,-78
2019-03-19T10:42:52.431Z,-77
2019-03-19T10:43:52.426Z,-77
2019-03-19T10:44:52.417Z,-76
2019-03-19T10:45:52.475Z,-76
2019-03-19T10:46:52.450Z,-76
2019-03-19T10:47:52.440Z,-77
2019-03-19T10:48:52.430Z,-76
2019-03-19T10:49:52.426Z,-78
2019-03-19T10:50:52.488Z,-77
2019-03-19T10:51:52.428Z,-77
2019-03-19T10:52:52.449Z,-77
2019-03-19T10:53:52.469Z,-77
2019-03-19T10:54:52.492Z,-77
2019-03-19T10:55:52.421Z,-77
2019-03-19T10:56:52.428Z,-76
2019-03-19T10:57:52.494Z,-76
2019-03-19T10:58:52.715Z,-74
2019-03-19T10:59:52.748Z,-74
2019-03-19T11:00:06.680Z,-73
2019-03-19T11:01:06.403Z,-76
2019-03-19T11:02:06.365Z,-76
2019-03-19T11:03:06.391Z,-76
2019-03-19T11:04:06.484Z,-75
2019-03-19T11:05:06.365Z,-77
2019-03-19T11:06:06.381Z,-75
2019-03-19T11:07:06.483Z,-77
2019-03-19T11:08:06.437Z,-77
2019-03-19T11:09:06.378Z,-76
2019-03-19T11:10:06.438Z,-76
2019-03-19T11:11:06.385Z,-77
2019-03-19T11:12:06.352Z,-77
2019-03-19T11:13:06.400Z,-76
2019-03-19T11:14:06.370Z,-76
2019-03-19T11:15:06.372Z,-76
2019-03-19T11:16:06.383Z,-76
2019-03-19T11:17:06.364Z,-75
2019-03-19T11:18:06.373Z,-76
2019-03-19T11:19:06.362Z,-77
2019-03-19T11:20:06.411Z,-76
2019-03-19T11:21:06.552Z,-76
2019-03-19T11:22:06.578Z,-76
2019-03-19T11:23:06.376Z,-76
2019-03-19T11:24:06.375Z,-78
2019-03-19T11:25:06.343Z,-78
2019-03-19T11:26:06.385Z,-78
2019-03-19T11:27:06.333Z,-77
2019-03-19T11:28:06.361Z,-77
2019-03-19T11:29:06.374Z,-74
2019-03-19T11:30:07.045Z,-77
2019-03-19T11:31:06.367Z,-77
2019-03-19T11:32:06.326Z,-79
2019-03-19T11:33:06.350Z,-77
2019-03-19T11:34:06.388Z,-78
2019-03-19T11:35:06.400Z,-78
2019-03-19T11:36:06.346Z,-77
2019-03-19T11:37:06.357Z,-79
2019-03-19T11:38:06.366Z,-79
2019-03-19T11:39:06.320Z,-77
2019-03-19T11:40:06.412Z,-78
2019-03-19T11:41:07.714Z,-78
2019-03-19T11:42:06.729Z,-76
2019-03-19T11:43:06.457Z,-77
2019-03-19T11:44:06.327Z,-78
2019-03-19T11:45:06.371Z,-78
2019-03-19T11:46:06.324Z,-79
2019-03-19T11:47:06.305Z,-77
2019-03-19T11:48:06.359Z,-77
2019-03-19T11:49:06.323Z,-78
2019-03-19T11:50:06.321Z,-78
2019-03-19T11:51:06.375Z,-78
2019-03-19T11:52:06.305Z,-78
2019-03-19T11:53:06.364Z,-78
2019-03-19T11:54:06.342Z,-78
2019-03-19T11:55:06.323Z,-76
2019-03-19T11:56:06.316Z,-76
2019-03-19T11:57:06.291Z,-78
2019-03-19T11:58:06.304Z,-78
2019-03-19T11:59:06.293Z,-77
2019-03-19T12:00:12.028Z,-77
2019-03-19T12:01:06.302Z,-77
2019-03-19T12:02:06.368Z,-77
2019-03-19T12:03:16.908Z,-77
2019-03-19T12:04:06.464Z,-77
2019-03-19T12:05:06.312Z,-77
2019-03-19T12:06:06.333Z,-76
2019-03-19T12:07:06.496Z,-77
2019-03-19T12:08:06.351Z,-77
2019-03-19T12:09:06.288Z,-77
2019-03-19T12:10:06.383Z,-77
2019-03-19T12:11:06.315Z,-80
2019-03-19T12:12:06.296Z,-77
2019-03-19T12:13:06.294Z,-78
2019-03-19T12:14:06.300Z,-76
2019-03-19T12:15:06.378Z,-78
2019-03-19T12:16:06.353Z,-79
2019-03-19T12:17:06.298Z,-80
2019-03-19T12:18:06.328Z,-78
2019-03-19T12:19:06.262Z,-76
2019-03-19T12:20:06.400Z,-77
2019-03-19T12:21:06.272Z,-78
2019-03-19T12:22:06.279Z,-79
2019-03-19T12:23:06.295Z,-76
2019-03-19T12:24:06.296Z,-79
2019-03-19T12:25:07.527Z,-72
2019-03-19T12:26:06.379Z,-77
2019-03-19T12:27:06.341Z,-77
2019-03-19T12:28:06.269Z,-77
2019-03-19T12:29:06.356Z,-77
2019-03-19T12:30:06.355Z,-77
2019-03-19T12:31:06.262Z,-78
2019-03-19T12:32:06.249Z,-77
2019-03-19T12:33:06.263Z,-77
2019-03-19T12:34:06.270Z,-76
2019-03-19T12:35:06.279Z,-78
2019-03-19T12:36:06.252Z,-77
2019-03-19T12:37:06.257Z,-78
2019-03-19T12:38:06.230Z,-78
2019-03-19T12:39:06.268Z,-78
2019-03-19T12:40:06.296Z,-78
2019-03-19T12:41:06.248Z,-77
2019-03-19T12:42:06.286Z,-78
2019-03-19T12:43:06.292Z,-78
2019-03-19T12:44:06.272Z,-77
2019-03-19T12:45:06.281Z,-75
2019-03-19T12:46:06.272Z,-77
2019-03-19T12:47:06.464Z,-76
2019-03-19T12:48:06.240Z,-78
2019-03-19T12:49:06.263Z,-78
2019-03-19T12:50:06.324Z,-76
2019-03-19T12:51:06.299Z,-78
2019-03-19T12:52:06.300Z,-78
2019-03-19T12:53:06.235Z,-77
2019-03-19T12:54:06.221Z,-77
2019-03-19T12:55:06.227Z,-78
2019-03-19T12:56:06.278Z,-78
2019-03-19T12:57:06.252Z,-80
2019-03-19T12:58:06.252Z,-77
2019-03-19T12:59:06.218Z,-78
2019-03-19T13:00:06.308Z,-77
2019-03-19T13:01:06.753Z,-77
2019-03-19T13:02:06.233Z,-77
2019-03-19T13:03:06.219Z,-77
2019-03-19T13:04:06.222Z,-77
2019-03-19T13:05:06.276Z,-78
2019-03-19T13:06:06.250Z,-78
2019-03-19T13:07:06.240Z,-78
2019-03-19T13:08:06.309Z,-76
2019-03-19T13:09:06.381Z,-77
2019-03-19T13:10:06.213Z,-77
2019-03-19T13:11:06.222Z,-77
2019-03-19T13:12:06.202Z,-77
2019-03-19T13:13:06.218Z,-77
2019-03-19T13:14:06.226Z,-78
2019-03-19T13:15:06.195Z,-78
2019-03-19T13:16:06.218Z,-78
2019-03-19T13:17:06.286Z,-77
2019-03-19T13:18:06.215Z,-78
2019-03-19T13:19:06.557Z,-77
2019-03-19T13:20:06.271Z,-77
2019-03-19T13:21:06.241Z,-78
2019-03-19T13:22:06.261Z,-77
2019-03-19T13:23:06.199Z,-78
2019-03-19T13:24:06.261Z,-79
2019-03-19T13:25:06.210Z,-76
2019-03-19T13:26:06.218Z,-77
2019-03-19T13:27:06.201Z,-78
2019-03-19T13:28:06.235Z,-78
2019-03-19T13:29:06.217Z,-78
2019-03-19T13:30:06.193Z,-78
2019-03-19T13:31:06.193Z,-78
2019-03-19T13:32:06.235Z,-78
2019-03-19T13:33:06.193Z,-78
2019-03-19T13:34:06.203Z,-78
2019-03-19T13:35:06.211Z,-78
2019-03-19T13:36:06.196Z,-78
2019-03-19T13:37:06.216Z,-77
2019-03-19T13:38:06.177Z,-77
2019-03-19T13:39:06.162Z,-77
2019-03-19T13:40:06.272Z,-77
2019-03-19T13:41:06.183Z,-77
2019-03-19T13:42:06.192Z,-78
2019-03-19T13:43:06.253Z,-78
2019-03-19T13:44:06.152Z,-78
2019-03-19T13:45:06.239Z,-78
2019-03-19T13:46:06.165Z,-78
2019-03-19T13:47:06.175Z,-78